createdAt,value
2022-12-07T00:01:49.505Z,9.65
2022-12-07T00:06:54.762Z,9.43
2022-12-07T00:11:56.560Z,9.55
2022-12-07T00:16:58.358Z,11.10
2022-12-07T00:22:00.184Z,9.93
2022-12-07T00:27:01.920Z,10.60
2022-12-07T00:32:04.565Z,9.68
2022-12-07T00:37:06.366Z,10.65
2022-12-07T00:42:08.234Z,11.30
2022-12-07T00:47:09.988Z,11.48
2022-12-07T00:52:11.712Z,12.23
2022-12-07T00:57:13.456Z,10.70
2022-12-07T01:02:15.219Z,11.02
2022-12-07T01:07:17.085Z,11.32
2022-12-07T01:12:18.890Z,11.88
2022-12-07T01:17:20.807Z,12.10
2022-12-07T01:22:22.597Z,13.27
2022-12-07T01:27:24.336Z,12.43
2022-12-07T01:32:26.268Z,12.02
2022-12-07T01:37:28.023Z,13.52
2022-12-07T01:42:29.931Z,12.07
2022-12-07T01:47:31.729Z,13.50
2022-12-07T01:52:35.647Z,12.32
2022-12-07T01:57:42.331Z,12.23
2022-12-07T02:03:06.073Z,13.38
2022-12-07T02:08:09.613Z,14.15
2022-12-07T02:13:16.837Z,15.07
2022-12-07T02:18:50.961Z,14.30
2022-12-07T02:24:20.012Z,13.95
2022-12-07T02:29:29.888Z,15.30
2022-12-07T02:34:46.809Z,12.30
2022-12-07T02:39:56.833Z,14.95
2022-12-07T02:44:59.847Z,11.23
2022-12-07T02:50:06.136Z,14.98
2022-12-07T02:55:09.264Z,14.45
2022-12-07T03:00:16.933Z,14.63
2022-12-07T03:05:35.861Z,14.70
2022-12-07T03:10:44.059Z,14.95
2022-12-07T03:16:03.021Z,14.88
2022-12-07T03:21:10.882Z,14.77
2022-12-07T03:26:15.524Z,14.35
2022-12-07T03:31:29.860Z,15.07
2022-12-07T03:37:00.932Z,14.95
2022-12-07T03:42:05.874Z,14.35
2022-12-07T03:47:30.052Z,14.05
2022-12-07T03:52:43.523Z,14.07
2022-12-07T03:57:48.668Z,14.43
2022-12-07T04:02:53.828Z,14.20
2022-12-07T04:07:55.802Z,13.55
2022-12-07T04:12:57.592Z,14.05
2022-12-07T04:17:59.402Z,13.05
2022-12-07T04:23:01.212Z,12.23
2022-12-07T04:28:03.015Z,11.38
2022-12-07T04:33:04.974Z,11.88
2022-12-07T04:38:07.315Z,11.50
2022-12-07T04:43:09.138Z,11.77
2022-12-07T04:48:11.359Z,13.38
2022-12-07T04:53:13.091Z,15.18
2022-12-07T04:58:15.421Z,13.65
2022-12-07T05:03:17.351Z,16.55
2022-12-07T05:08:19.184Z,15.20
2022-12-07T05:13:21.110Z,14.45
2022-12-07T05:18:22.958Z,14.18
2022-12-07T05:23:24.727Z,15.15
2022-12-07T05:28:26.869Z,13.43
2022-12-07T05:33:28.652Z,13.55
2022-12-07T05:38:30.421Z,14.20
2022-12-07T05:43:32.399Z,13.77
2022-12-07T05:48:34.148Z,12.05
2022-12-07T05:53:35.919Z,13.98
2022-12-07T05:58:56.310Z,12.43
2022-12-07T06:03:58.043Z,9.40
2022-12-07T06:08:59.872Z,13.25
2022-12-07T06:14:01.653Z,14.43
2022-12-07T06:19:03.647Z,12.35
2022-12-07T06:24:05.876Z,12.00
2022-12-07T06:29:08.259Z,11.80
2022-12-07T06:34:19.645Z,11.77
2022-12-07T06:39:25.050Z,10.90
2022-12-07T06:44:27.065Z,11.07
2022-12-07T06:49:28.791Z,11.25
2022-12-07T06:54:31.256Z,11.55
2022-12-07T06:59:32.999Z,12.25
2022-12-07T07:04:34.773Z,12.13
2022-12-07T07:09:36.548Z,13.48
2022-12-07T07:14:38.353Z,14.38
2022-12-07T07:19:40.197Z,13.73
2022-12-07T07:24:42.117Z,14.70
2022-12-07T07:29:44.082Z,13.70
2022-12-07T07:34:45.824Z,13.48
2022-12-07T07:39:47.707Z,11.07
2022-12-07T07:44:49.466Z,11.43
2022-12-07T07:49:51.294Z,10.90
2022-12-07T07:54:53.120Z,10.20
2022-12-07T07:59:54.901Z,11.23
2022-12-07T08:04:56.723Z,10.35
2022-12-07T08:09:58.566Z,10.50
2022-12-07T08:15:00.443Z,10.23
2022-12-07T08:20:02.618Z,9.15
2022-12-07T08:25:04.994Z,9.63
2022-12-07T08:30:07.392Z,9.40
2022-12-07T08:35:09.697Z,10.23
2022-12-07T08:40:16.151Z,10.93
2022-12-07T08:45:25.006Z,12.05
2022-12-07T08:55:30.668Z,10.05
2022-12-07T09:00:32.503Z,9.80
2022-12-07T09:05:35.366Z,10.07
2022-12-07T09:10:37.228Z,10.57
2022-12-07T09:15:39.038Z,14.90
2022-12-07T09:20:40.894Z,10.00
2022-12-07T09:25:42.807Z,10.35
2022-12-07T09:31:22.219Z,10.40
2022-12-07T09:36:12.388Z,9.98
2022-12-07T09:41:21.755Z,7.82
2022-12-07T09:46:23.902Z,10.65
2022-12-07T09:51:26.250Z,11.13
2022-12-07T09:56:31.751Z,9.38
2022-12-07T10:01:35.423Z,9.05
2022-12-07T10:06:37.352Z,9.32
2022-12-07T10:12:08.242Z,9.80
2022-12-07T10:22:32.316Z,8.70
2022-12-07T10:27:34.334Z,9.30
2022-12-07T10:32:37.692Z,8.55
2022-12-07T10:37:43.175Z,7.88
2022-12-07T10:43:04.077Z,7.93
2022-12-07T10:53:25.612Z,6.78
2022-12-07T10:58:36.004Z,5.22
2022-12-07T11:03:55.856Z,5.30
2022-12-07T11:10:06.785Z,3.60
2022-12-07T11:15:10.107Z,4.53
2022-12-07T11:20:15.027Z,5.78
2022-12-07T11:25:48.172Z,5.63
2022-12-07T11:31:28.744Z,5.85
2022-12-07T11:36:40.009Z,5.70
2022-12-07T11:41:43.915Z,6.40
2022-12-07T11:46:54.704Z,6.35
2022-12-07T11:57:09.190Z,5.43
2022-12-07T12:18:41.605Z,5.47
2022-12-07T12:23:57.188Z,6.18
2022-12-07T12:29:01.754Z,6.18
2022-12-07T12:34:25.193Z,5.40
2022-12-07T12:39:27.034Z,6.28
2022-12-07T12:44:34.662Z,5.68
2022-12-07T12:49:39.553Z,5.75
2022-12-07T12:55:02.398Z,6.57
2022-12-07T13:00:18.598Z,6.93
2022-12-07T13:05:28.396Z,6.93
2022-12-07T13:10:30.157Z,6.80
2022-12-07T13:15:43.229Z,5.95
2022-12-07T13:20:51.043Z,4.00
2022-12-07T13:26:04.409Z,3.92
2022-12-07T13:31:31.427Z,4.65
2022-12-07T13:36:39.149Z,4.13
2022-12-07T13:41:43.526Z,3.20
2022-12-07T13:46:54.333Z,2.88
2022-12-07T13:57:09.733Z,3.05
2022-12-07T14:02:34.053Z,2.40
2022-12-07T14:07:37.310Z,2.63
2022-12-07T14:12:39.194Z,3.28
2022-12-07T14:17:55.124Z,3.17
2022-12-07T14:22:57.360Z,2.70
2022-12-07T14:28:01.534Z,2.75
2022-12-07T14:33:09.235Z,2.08
2022-12-07T14:38:10.985Z,2.60
2022-12-07T14:43:15.810Z,2.88
2022-12-07T14:53:43.708Z,4.38
2022-12-07T14:58:45.644Z,4.13
2022-12-07T15:03:47.512Z,5.10
2022-12-07T15:08:49.289Z,3.88
2022-12-07T15:14:09.199Z,3.15
2022-12-07T15:19:30.394Z,3.10
2022-12-07T15:24:32.342Z,3.42
2022-12-07T15:29:34.138Z,3.90
2022-12-07T15:34:39.842Z,3.83
2022-12-07T15:39:42.263Z,3.95
2022-12-07T15:45:03.043Z,3.33
2022-12-07T15:50:07.360Z,4.30
2022-12-07T15:55:11.120Z,4.00
2022-12-07T16:00:13.802Z,4.60
2022-12-07T16:05:15.599Z,4.15
2022-12-07T16:10:17.602Z,3.83
2022-12-07T16:15:24.490Z,3.53
2022-12-07T16:20:32.962Z,4.28
2022-12-07T16:25:35.077Z,4.22
2022-12-07T16:30:36.921Z,4.22
2022-12-07T16:35:42.232Z,4.50
2022-12-07T16:40:45.132Z,3.90
2022-12-07T16:45:48.463Z,4.25
2022-12-07T16:50:51.543Z,4.47
2022-12-07T16:55:53.549Z,4.70
2022-12-07T17:00:55.899Z,5.22
2022-12-07T17:05:57.655Z,3.67
2022-12-07T17:10:59.472Z,4.20
2022-12-07T17:16:04.079Z,3.88
2022-12-07T17:21:10.306Z,3.90
2022-12-07T17:26:18.003Z,3.13
2022-12-07T17:31:22.031Z,3.13
2022-12-07T17:36:26.580Z,5.75
2022-12-07T17:41:48.144Z,6.07
2022-12-07T17:46:57.795Z,4.45
2022-12-07T17:52:18.269Z,4.45
2022-12-07T17:57:20.174Z,3.95
2022-12-07T18:02:22.195Z,7.47
2022-12-07T18:07:24.179Z,6.60
2022-12-07T18:12:26.026Z,5.45
2022-12-07T18:17:27.807Z,5.82
2022-12-07T18:22:29.715Z,5.88
2022-12-07T18:27:32.869Z,6.18
2022-12-07T18:32:34.775Z,6.35
2022-12-07T18:37:36.607Z,6.53
2022-12-07T18:42:38.702Z,6.25
2022-12-07T18:47:40.569Z,6.25
2022-12-07T18:52:42.370Z,7.03
2022-12-07T18:57:44.167Z,6.32
2022-12-07T19:02:46.093Z,6.53
2022-12-07T19:07:48.426Z,7.28
2022-12-07T19:12:50.409Z,7.72
2022-12-07T19:17:52.453Z,8.45
2022-12-07T19:22:54.384Z,8.77
2022-12-07T19:27:56.220Z,9.35
2022-12-07T19:32:58.316Z,8.82
2022-12-07T19:38:00.114Z,9.75
2022-12-07T19:43:02.488Z,10.82
2022-12-07T19:48:04.798Z,10.77
2022-12-07T19:53:06.738Z,11.77
2022-12-07T19:58:08.546Z,12.77
2022-12-07T20:03:10.322Z,12.48
2022-12-07T20:08:12.344Z,12.63
2022-12-07T20:13:31.047Z,12.60
2022-12-07T20:18:33.924Z,11.80
2022-12-07T20:23:35.882Z,11.65
2022-12-07T20:28:38.238Z,11.57
2022-12-07T20:33:41.024Z,11.55
2022-12-07T20:38:43.931Z,10.27
2022-12-07T20:43:46.000Z,15.88
2022-12-07T20:48:47.805Z,10.88
2022-12-07T20:53:49.632Z,10.55
2022-12-07T20:58:51.775Z,10.10
2022-12-07T21:04:01.398Z,10.55
2022-12-07T21:09:03.556Z,9.60
2022-12-07T21:14:05.941Z,9.60
2022-12-07T21:19:07.735Z,8.93
2022-12-07T21:24:11.992Z,7.88
2022-12-07T21:29:13.928Z,7.15
2022-12-07T21:34:15.656Z,6.18
2022-12-07T21:39:17.838Z,6.97
2022-12-07T21:44:19.848Z,5.82
2022-12-07T21:49:21.746Z,5.63
2022-12-07T21:54:26.021Z,5.68
2022-12-07T21:59:28.696Z,5.85
2022-12-07T22:04:30.480Z,6.68
2022-12-07T22:09:32.492Z,6.72
2022-12-07T22:14:52.721Z,5.90
2022-12-07T22:19:54.481Z,3.70
2022-12-07T22:24:57.135Z,6.50
2022-12-07T22:29:58.969Z,6.07
2022-12-07T22:35:01.297Z,5.30
2022-12-07T22:40:03.632Z,4.03
2022-12-07T22:45:06.052Z,2.70
2022-12-07T22:50:08.784Z,2.63
2022-12-07T22:55:11.777Z,2.28
2022-12-07T23:00:14.257Z,2.50
2022-12-07T23:05:18.419Z,2.75
2022-12-07T23:10:20.438Z,2.42
2022-12-07T23:15:22.315Z,2.53
2022-12-07T23:20:24.241Z,3.42
2022-12-07T23:25:26.077Z,3.97
2022-12-07T23:30:27.814Z,4.43
2022-12-07T23:35:29.888Z,5.85
2022-12-07T23:40:31.694Z,5.30
2022-12-07T23:45:33.615Z,6.63
2022-12-07T23:50:35.552Z,6.38
2022-12-07T23:55:37.517Z,8.45
